sensor_id;sensor_type;location;lat;lon;timestamp;temperature;humidity
18434;DHT22;9344;52.294;13.626;2022-11-15T00:02:01;7.10;99.90
18434;DHT22;9344;52.294;13.626;2022-11-15T00:04:29;7.00;99.90
18434;DHT22;9344;52.294;13.626;2022-11-15T00:06:56;7.00;99.90
18434;DHT22;9344;52.294;13.626;2022-11-15T00:09:22;7.00;99.90
18434;DHT22;9344;52.294;13.626;2022-11-15T00:11:49;7.00;99.90
18434;DHT22;9344;52.294;13.626;2022-11-15T00:14:17;6.90;99.90
18434;DHT22;9344;52.294;13.626;2022-11-15T00:16:45;6.90;99.90
18434;DHT22;9344;52.294;13.626;2022-11-15T00:19:12;6.90;99.90
18434;DHT22;9344;52.294;13.626;2022-11-15T00:21:39;6.90;99.90
18434;DHT22;9344;52.294;13.626;2022-11-15T00:24:06;6.80;99.90
18434;DHT22;9344;52.294;13.626;2022-11-15T00:26:32;6.80;99.90
18434;DHT22;9344;52.294;13.626;2022-11-15T00:28:59;6.80;99.90
18434;DHT22;9344;52.294;13.626;2022-11-15T00:31:25;6.80;99.90
18434;DHT22;9344;52.294;13.626;2022-11-15T00:33:53;6.80;99.90
18434;DHT22;9344;52.294;13.626;2022-11-15T00:36:19;6.80;99.90
18434;DHT22;9344;52.294;13.626;2022-11-15T00:38:46;6.80;99.90
18434;DHT22;9344;52.294;13.626;2022-11-15T00:41:12;6.80;99.90
18434;DHT22;9344;52.294;13.626;2022-11-15T00:43:39;6.70;99.90
18434;DHT22;9344;52.294;13.626;2022-11-15T00:46:08;6.70;99.90
18434;DHT22;9344;52.294;13.626;2022-11-15T00:48:35;6.70;99.90
18434;DHT22;9344;52.294;13.626;2022-11-15T00:51:03;6.70;99.90
18434;DHT22;9344;52.294;13.626;2022-11-15T00:53:30;6.70;99.90
18434;DHT22;9344;52.294;13.626;2022-11-15T00:55:56;6.60;99.90
18434;DHT22;9344;52.294;13.626;2022-11-15T00:58:23;6.60;99.90
18434;DHT22;9344;52.294;13.626;2022-11-15T01:00:49;6.50;99.90
18434;DHT22;9344;52.294;13.626;2022-11-15T01:03:16;6.60;99.90
18434;DHT22;9344;52.294;13.626;2022-11-15T01:05:42;6.60;99.90
18434;DHT22;9344;52.294;13.626;2022-11-15T01:08:13;6.50;99.90
18434;DHT22;9344;52.294;13.626;2022-11-15T01:10:40;6.40;99.90
18434;DHT22;9344;52.294;13.626;2022-11-15T01:13:07;6.50;99.90
18434;DHT22;9344;52.294;13.626;2022-11-15T01:15:34;6.50;99.90
18434;DHT22;9344;52.294;13.626;2022-11-15T01:18:00;6.50;99.90
18434;DHT22;9344;52.294;13.626;2022-11-15T01:20:27;6.40;99.90
18434;DHT22;9344;52.294;13.626;2022-11-15T01:22:54;6.50;99.90
18434;DHT22;9344;52.294;13.626;2022-11-15T01:25:22;6.40;99.90
18434;DHT22;9344;52.294;13.626;2022-11-15T01:27:48;6.40;99.90
18434;DHT22;9344;52.294;13.626;2022-11-15T01:30:15;6.40;99.90
18434;DHT22;9344;52.294;13.626;2022-11-15T01:32:41;6.40;99.90
18434;DHT22;9344;52.294;13.626;2022-11-15T01:35:08;6.30;99.90
18434;DHT22;9344;52.294;13.626;2022-11-15T01:37:34;6.30;99.90
18434;DHT22;9344;52.294;13.626;2022-11-15T01:40:01;6.30;99.90
18434;DHT22;9344;52.294;13.626;2022-11-15T01:42:30;6.40;99.90
18434;DHT22;9344;52.294;13.626;2022-11-15T01:44:56;6.40;99.90
18434;DHT22;9344;52.294;13.626;2022-11-15T01:47:25;6.40;99.90
18434;DHT22;9344;52.294;13.626;2022-11-15T01:49:55;6.40;99.90
18434;DHT22;9344;52.294;13.626;2022-11-15T01:52:25;6.50;99.90
18434;DHT22;9344;52.294;13.626;2022-11-15T01:54:56;6.40;99.90
18434;DHT22;9344;52.294;13.626;2022-11-15T01:57:24;6.40;99.90
18434;DHT22;9344;52.294;13.626;2022-11-15T01:59:52;6.40;99.90
18434;DHT22;9344;52.294;13.626;2022-11-15T02:02:19;6.30;99.90
18434;DHT22;9344;52.294;13.626;2022-11-15T02:04:46;6.40;99.90
18434;DHT22;9344;52.294;13.626;2022-11-15T02:07:16;6.30;99.90
18434;DHT22;9344;52.294;13.626;2022-11-15T02:09:44;6.30;99.90
18434;DHT22;9344;52.294;13.626;2022-11-15T02:12:13;6.30;99.90
18434;DHT22;9344;52.294;13.626;2022-11-15T02:14:42;6.20;99.90
18434;DHT22;9344;52.294;13.626;2022-11-15T02:17:26;6.30;99.90
18434;DHT22;9344;52.294;13.626;2022-11-15T02:20:19;6.30;99.90
18434;DHT22;9344;52.294;13.626;2022-11-15T02:23:15;6.30;99.90
18434;DHT22;9344;52.294;13.626;2022-11-15T02:25:57;6.30;99.90
18434;DHT22;9344;52.294;13.626;2022-11-15T02:28:50;6.30;99.90
18434;DHT22;9344;52.294;13.626;2022-11-15T02:31:28;6.20;99.90
18434;DHT22;9344;52.294;13.626;2022-11-15T02:34:03;6.30;99.90
18434;DHT22;9344;52.294;13.626;2022-11-15T02:36:38;6.30;99.90
18434;DHT22;9344;52.294;13.626;2022-11-15T02:39:10;6.30;99.90
18434;DHT22;9344;52.294;13.626;2022-11-15T02:41:43;6.20;99.90
18434;DHT22;9344;52.294;13.626;2022-11-15T02:44:16;6.30;99.90
18434;DHT22;9344;52.294;13.626;2022-11-15T02:46:47;6.30;99.90
18434;DHT22;9344;52.294;13.626;2022-11-15T02:49:34;6.30;99.90
18434;DHT22;9344;52.294;13.626;2022-11-15T02:52:01;6.30;99.90
18434;DHT22;9344;52.294;13.626;2022-11-15T02:54:29;6.30;99.90
18434;DHT22;9344;52.294;13.626;2022-11-15T02:57:00;6.40;99.90
18434;DHT22;9344;52.294;13.626;2022-11-15T03:00:04;6.40;99.90
18434;DHT22;9344;52.294;13.626;2022-11-15T03:02:54;6.40;99.90
18434;DHT22;9344;52.294;13.626;2022-11-15T03:05:29;6.40;99.90
18434;DHT22;9344;52.294;13.626;2022-11-15T03:08:02;6.40;99.90
18434;DHT22;9344;52.294;13.626;2022-11-15T03:10:38;6.40;99.90
18434;DHT22;9344;52.294;13.626;2022-11-15T03:13:20;6.30;99.90
18434;DHT22;9344;52.294;13.626;2022-11-15T03:15:57;6.40;99.90
18434;DHT22;9344;52.294;13.626;2022-11-15T03:18:33;6.40;99.90
18434;DHT22;9344;52.294;13.626;2022-11-15T03:21:01;6.40;99.90
18434;DHT22;9344;52.294;13.626;2022-11-15T03:23:30;6.40;99.90
18434;DHT22;9344;52.294;13.626;2022-11-15T03:25:58;6.50;99.90
18434;DHT22;9344;52.294;13.626;2022-11-15T03:28:32;6.40;99.90
18434;DHT22;9344;52.294;13.626;2022-11-15T03:31:02;6.40;99.90
18434;DHT22;9344;52.294;13.626;2022-11-15T03:33:54;6.40;99.90
18434;DHT22;9344;52.294;13.626;2022-11-15T03:36:22;6.30;99.90
18434;DHT22;9344;52.294;13.626;2022-11-15T03:38:51;6.40;99.90
18434;DHT22;9344;52.294;13.626;2022-11-15T03:41:23;6.30;99.90
18434;DHT22;9344;52.294;13.626;2022-11-15T03:43:54;6.30;99.90
18434;DHT22;9344;52.294;13.626;2022-11-15T03:46:26;6.30;99.90
18434;DHT22;9344;52.294;13.626;2022-11-15T03:48:59;6.30;99.90
18434;DHT22;9344;52.294;13.626;2022-11-15T03:51:27;6.30;99.90
18434;DHT22;9344;52.294;13.626;2022-11-15T03:53:55;6.30;99.90
18434;DHT22;9344;52.294;13.626;2022-11-15T03:56:21;6.30;99.90
18434;DHT22;9344;52.294;13.626;2022-11-15T03:58:48;6.30;99.90
18434;DHT22;9344;52.294;13.626;2022-11-15T04:01:14;6.30;99.90
18434;DHT22;9344;52.294;13.626;2022-11-15T04:03:41;6.20;99.90
18434;DHT22;9344;52.294;13.626;2022-11-15T04:06:08;6.20;99.90
18434;DHT22;9344;52.294;13.626;2022-11-15T04:08:35;6.20;99.90
18434;DHT22;9344;52.294;13.626;2022-11-15T04:11:01;6.20;99.90
18434;DHT22;9344;52.294;13.626;2022-11-15T04:13:28;6.20;99.90
18434;DHT22;9344;52.294;13.626;2022-11-15T04:15:54;6.10;99.90
18434;DHT22;9344;52.294;13.626;2022-11-15T04:18:21;6.10;99.90
18434;DHT22;9344;52.294;13.626;2022-11-15T04:20:48;6.10;99.90
18434;DHT22;9344;52.294;13.626;2022-11-15T04:23:33;6.10;99.90
18434;DHT22;9344;52.294;13.626;2022-11-15T04:26:18;6.10;99.90
18434;DHT22;9344;52.294;13.626;2022-11-15T04:28:46;6.20;99.90
18434;DHT22;9344;52.294;13.626;2022-11-15T04:31:26;6.10;99.90
18434;DHT22;9344;52.294;13.626;2022-11-15T04:33:53;6.10;99.90
18434;DHT22;9344;52.294;13.626;2022-11-15T04:36:20;6.20;99.90
18434;DHT22;9344;52.294;13.626;2022-11-15T04:39:06;6.10;99.90
18434;DHT22;9344;52.294;13.626;2022-11-15T04:41:32;6.10;99.90
18434;DHT22;9344;52.294;13.626;2022-11-15T04:43:59;6.10;99.90
18434;DHT22;9344;52.294;13.626;2022-11-15T04:46:26;6.10;99.90
18434;DHT22;9344;52.294;13.626;2022-11-15T04:48:53;6.10;99.90
18434;DHT22;9344;52.294;13.626;2022-11-15T04:51:20;6.00;99.90
18434;DHT22;9344;52.294;13.626;2022-11-15T04:53:47;6.00;99.90
18434;DHT22;9344;52.294;13.626;2022-11-15T04:56:15;6.00;99.90
18434;DHT22;9344;52.294;13.626;2022-11-15T04:58:41;6.00;99.90
18434;DHT22;9344;52.294;13.626;2022-11-15T05:01:08;5.90;99.90
18434;DHT22;9344;52.294;13.626;2022-11-15T05:03:34;5.90;99.90
18434;DHT22;9344;52.294;13.626;2022-11-15T05:06:19;5.90;99.90
18434;DHT22;9344;52.294;13.626;2022-11-15T05:08:45;5.90;99.90
18434;DHT22;9344;52.294;13.626;2022-11-15T05:11:12;5.90;99.90
18434;DHT22;9344;52.294;13.626;2022-11-15T05:13:40;5.90;99.90
18434;DHT22;9344;52.294;13.626;2022-11-15T05:16:06;5.90;99.90
18434;DHT22;9344;52.294;13.626;2022-11-15T05:18:33;5.90;99.90
18434;DHT22;9344;52.294;13.626;2022-11-15T05:21:03;5.90;99.90
18434;DHT22;9344;52.294;13.626;2022-11-15T05:23:30;5.80;99.90
18434;DHT22;9344;52.294;13.626;2022-11-15T05:25:59;5.80;99.90
18434;DHT22;9344;52.294;13.626;2022-11-15T05:28:25;5.80;99.90
18434;DHT22;9344;52.294;13.626;2022-11-15T05:30:53;5.80;99.90
18434;DHT22;9344;52.294;13.626;2022-11-15T05:33:26;5.70;99.90
18434;DHT22;9344;52.294;13.626;2022-11-15T05:35:57;5.80;99.90
18434;DHT22;9344;52.294;13.626;2022-11-15T05:38:26;5.80;99.90
18434;DHT22;9344;52.294;13.626;2022-11-15T05:40:53;5.80;99.90
18434;DHT22;9344;52.294;13.626;2022-11-15T05:43:20;5.70;99.90
18434;DHT22;9344;52.294;13.626;2022-11-15T05:45:47;5.80;99.90
18434;DHT22;9344;52.294;13.626;2022-11-15T05:48:16;5.80;99.90
18434;DHT22;9344;52.294;13.626;2022-11-15T05:50:45;5.80;99.90
18434;DHT22;9344;52.294;13.626;2022-11-15T05:53:14;5.80;99.90
18434;DHT22;9344;52.294;13.626;2022-11-15T05:55:41;5.80;99.90
18434;DHT22;9344;52.294;13.626;2022-11-15T05:58:08;5.80;99.90
18434;DHT22;9344;52.294;13.626;2022-11-15T06:00:34;5.80;99.90
18434;DHT22;9344;52.294;13.626;2022-11-15T06:03:01;5.80;99.90
18434;DHT22;9344;52.294;13.626;2022-11-15T06:05:29;5.80;99.90
18434;DHT22;9344;52.294;13.626;2022-11-15T06:07:57;5.80;99.90
18434;DHT22;9344;52.294;13.626;2022-11-15T06:10:24;5.80;99.90
18434;DHT22;9344;52.294;13.626;2022-11-15T06:12:56;5.80;99.90
18434;DHT22;9344;52.294;13.626;2022-11-15T06:15:23;5.80;99.90
18434;DHT22;9344;52.294;13.626;2022-11-15T06:17:49;5.70;99.90
18434;DHT22;9344;52.294;13.626;2022-11-15T06:20:16;5.70;99.90
18434;DHT22;9344;52.294;13.626;2022-11-15T06:22:44;5.70;99.90
18434;DHT22;9344;52.294;13.626;2022-11-15T06:25:10;5.70;99.90
18434;DHT22;9344;52.294;13.626;2022-11-15T06:27:37;5.70;99.90
18434;DHT22;9344;52.294;13.626;2022-11-15T06:30:04;5.60;99.90
18434;DHT22;9344;52.294;13.626;2022-11-15T06:32:31;5.60;99.90
18434;DHT22;9344;52.294;13.626;2022-11-15T06:34:57;5.60;99.90
18434;DHT22;9344;52.294;13.626;2022-11-15T06:37:24;5.60;99.90
18434;DHT22;9344;52.294;13.626;2022-11-15T06:39:52;5.70;99.90
18434;DHT22;9344;52.294;13.626;2022-11-15T06:42:18;5.60;99.90
18434;DHT22;9344;52.294;13.626;2022-11-15T06:44:45;5.70;99.90
18434;DHT22;9344;52.294;13.626;2022-11-15T06:47:11;5.70;99.90
18434;DHT22;9344;52.294;13.626;2022-11-15T06:49:38;5.70;99.90
18434;DHT22;9344;52.294;13.626;2022-11-15T06:52:04;5.70;99.90
18434;DHT22;9344;52.294;13.626;2022-11-15T06:54:31;5.80;99.90
18434;DHT22;9344;52.294;13.626;2022-11-15T06:56:59;5.80;99.90
18434;DHT22;9344;52.294;13.626;2022-11-15T06:59:25;5.80;99.90
18434;DHT22;9344;52.294;13.626;2022-11-15T07:01:52;5.80;99.90
18434;DHT22;9344;52.294;13.626;2022-11-15T07:04:18;5.90;99.90
18434;DHT22;9344;52.294;13.626;2022-11-15T07:06:46;5.90;99.90
18434;DHT22;9344;52.294;13.626;2022-11-15T07:09:12;5.90;99.90
18434;DHT22;9344;52.294;13.626;2022-11-15T07:11:39;6.00;99.90
18434;DHT22;9344;52.294;13.626;2022-11-15T07:14:07;6.00;99.90
18434;DHT22;9344;52.294;13.626;2022-11-15T07:16:33;6.10;99.90
18434;DHT22;9344;52.294;13.626;2022-11-15T07:19:00;6.10;99.90
18434;DHT22;9344;52.294;13.626;2022-11-15T07:21:26;6.10;99.90
18434;DHT22;9344;52.294;13.626;2022-11-15T07:23:53;6.20;99.90
18434;DHT22;9344;52.294;13.626;2022-11-15T07:26:20;6.30;99.90
18434;DHT22;9344;52.294;13.626;2022-11-15T07:28:46;6.30;99.90
18434;DHT22;9344;52.294;13.626;2022-11-15T07:31:14;6.30;99.90
18434;DHT22;9344;52.294;13.626;2022-11-15T07:33:40;6.30;99.90
18434;DHT22;9344;52.294;13.626;2022-11-15T07:36:09;6.40;99.90
18434;DHT22;9344;52.294;13.626;2022-11-15T07:38:36;6.50;99.90
18434;DHT22;9344;52.294;13.626;2022-11-15T07:41:04;6.50;99.90
18434;DHT22;9344;52.294;13.626;2022-11-15T07:43:31;6.60;99.90
18434;DHT22;9344;52.294;13.626;2022-11-15T07:46:03;6.60;99.90
18434;DHT22;9344;52.294;13.626;2022-11-15T07:48:31;6.70;99.90
18434;DHT22;9344;52.294;13.626;2022-11-15T07:50:58;6.70;99.90
18434;DHT22;9344;52.294;13.626;2022-11-15T07:53:24;6.80;99.90
18434;DHT22;9344;52.294;13.626;2022-11-15T07:55:51;6.80;99.90
18434;DHT22;9344;52.294;13.626;2022-11-15T07:58:19;6.90;99.90
18434;DHT22;9344;52.294;13.626;2022-11-15T08:00:45;6.90;99.90
18434;DHT22;9344;52.294;13.626;2022-11-15T08:03:14;7.00;99.90
18434;DHT22;9344;52.294;13.626;2022-11-15T08:05:43;7.00;99.90
18434;DHT22;9344;52.294;13.626;2022-11-15T08:08:11;7.10;99.90
18434;DHT22;9344;52.294;13.626;2022-11-15T08:10:38;7.10;99.90
18434;DHT22;9344;52.294;13.626;2022-11-15T08:13:05;7.20;99.90
18434;DHT22;9344;52.294;13.626;2022-11-15T08:15:33;7.20;99.90
18434;DHT22;9344;52.294;13.626;2022-11-15T08:18:02;7.30;99.90
18434;DHT22;9344;52.294;13.626;2022-11-15T08:20:29;7.30;99.90
18434;DHT22;9344;52.294;13.626;2022-11-15T08:22:58;7.30;99.90
18434;DHT22;9344;52.294;13.626;2022-11-15T08:25:25;7.40;99.90
18434;DHT22;9344;52.294;13.626;2022-11-15T08:27:52;7.50;99.90
18434;DHT22;9344;52.294;13.626;2022-11-15T08:30:19;7.60;99.90
18434;DHT22;9344;52.294;13.626;2022-11-15T08:32:46;7.70;99.90
18434;DHT22;9344;52.294;13.626;2022-11-15T08:35:12;7.70;99.90
18434;DHT22;9344;52.294;13.626;2022-11-15T08:37:39;7.80;99.90
18434;DHT22;9344;52.294;13.626;2022-11-15T08:40:08;7.90;99.90
18434;DHT22;9344;52.294;13.626;2022-11-15T08:42:35;7.90;99.90
18434;DHT22;9344;52.294;13.626;2022-11-15T08:45:02;8.00;99.90
18434;DHT22;9344;52.294;13.626;2022-11-15T08:47:29;8.10;99.90
18434;DHT22;9344;52.294;13.626;2022-11-15T08:49:56;8.10;99.90
18434;DHT22;9344;52.294;13.626;2022-11-15T08:52:23;8.20;99.90
18434;DHT22;9344;52.294;13.626;2022-11-15T08:54:49;8.30;99.90
18434;DHT22;9344;52.294;13.626;2022-11-15T08:57:17;8.40;99.90
18434;DHT22;9344;52.294;13.626;2022-11-15T08:59:44;8.40;99.90
18434;DHT22;9344;52.294;13.626;2022-11-15T09:02:12;8.50;99.90
18434;DHT22;9344;52.294;13.626;2022-11-15T09:04:40;8.60;99.90
18434;DHT22;9344;52.294;13.626;2022-11-15T09:07:07;8.60;99.90
18434;DHT22;9344;52.294;13.626;2022-11-15T09:09:33;8.70;99.90
18434;DHT22;9344;52.294;13.626;2022-11-15T09:12:00;8.80;99.90
18434;DHT22;9344;52.294;13.626;2022-11-15T09:14:28;8.80;99.90
18434;DHT22;9344;52.294;13.626;2022-11-15T09:16:54;8.90;99.90
18434;DHT22;9344;52.294;13.626;2022-11-15T09:19:21;8.90;99.90
18434;DHT22;9344;52.294;13.626;2022-11-15T09:21:48;9.00;99.90
18434;DHT22;9344;52.294;13.626;2022-11-15T09:24:14;9.10;99.90
18434;DHT22;9344;52.294;13.626;2022-11-15T09:26:41;9.20;99.90
18434;DHT22;9344;52.294;13.626;2022-11-15T09:29:07;9.30;99.90
18434;DHT22;9344;52.294;13.626;2022-11-15T09:31:35;9.40;99.90
18434;DHT22;9344;52.294;13.626;2022-11-15T09:34:02;9.40;99.90
18434;DHT22;9344;52.294;13.626;2022-11-15T09:36:28;9.50;99.90
18434;DHT22;9344;52.294;13.626;2022-11-15T09:38:56;9.50;99.90
18434;DHT22;9344;52.294;13.626;2022-11-15T09:41:34;9.60;99.90
18434;DHT22;9344;52.294;13.626;2022-11-15T09:44:14;9.70;99.90
18434;DHT22;9344;52.294;13.626;2022-11-15T09:46:59;9.80;99.90
18434;DHT22;9344;52.294;13.626;2022-11-15T09:49:28;9.80;99.90
18434;DHT22;9344;52.294;13.626;2022-11-15T09:51:55;9.90;99.90
18434;DHT22;9344;52.294;13.626;2022-11-15T09:54:27;10.00;99.90
18434;DHT22;9344;52.294;13.626;2022-11-15T09:56:57;10.10;99.90
18434;DHT22;9344;52.294;13.626;2022-11-15T09:59:41;10.20;99.90
18434;DHT22;9344;52.294;13.626;2022-11-15T10:02:23;10.30;99.90
18434;DHT22;9344;52.294;13.626;2022-11-15T10:04:53;10.40;99.90
18434;DHT22;9344;52.294;13.626;2022-11-15T10:07:25;10.40;99.90
18434;DHT22;9344;52.294;13.626;2022-11-15T10:09:57;10.50;99.90
18434;DHT22;9344;52.294;13.626;2022-11-15T10:12:27;10.50;99.90
18434;DHT22;9344;52.294;13.626;2022-11-15T10:14:59;10.60;99.90
18434;DHT22;9344;52.294;13.626;2022-11-15T10:17:41;10.70;99.90
18434;DHT22;9344;52.294;13.626;2022-11-15T10:20:18;10.80;99.90
18434;DHT22;9344;52.294;13.626;2022-11-15T10:22:48;10.80;99.90
18434;DHT22;9344;52.294;13.626;2022-11-15T10:25:19;10.90;99.90
18434;DHT22;9344;52.294;13.626;2022-11-15T10:27:52;11.00;99.90
18434;DHT22;9344;52.294;13.626;2022-11-15T10:30:23;11.10;99.90
18434;DHT22;9344;52.294;13.626;2022-11-15T10:32:51;11.20;99.90
18434;DHT22;9344;52.294;13.626;2022-11-15T10:35:24;11.20;99.90
18434;DHT22;9344;52.294;13.626;2022-11-15T10:37:51;11.30;99.90
18434;DHT22;9344;52.294;13.626;2022-11-15T10:40:20;11.40;99.90
18434;DHT22;9344;52.294;13.626;2022-11-15T10:42:47;11.50;99.90
18434;DHT22;9344;52.294;13.626;2022-11-15T10:45:26;11.50;99.90
18434;DHT22;9344;52.294;13.626;2022-11-15T10:48:18;11.60;99.90
18434;DHT22;9344;52.294;13.626;2022-11-15T10:50:46;11.60;99.90
18434;DHT22;9344;52.294;13.626;2022-11-15T10:53:19;11.70;99.90
18434;DHT22;9344;52.294;13.626;2022-11-15T10:55:49;11.80;99.90
18434;DHT22;9344;52.294;13.626;2022-11-15T10:58:22;11.80;99.90
18434;DHT22;9344;52.294;13.626;2022-11-15T11:00:53;11.90;99.90
18434;DHT22;9344;52.294;13.626;2022-11-15T11:03:31;12.00;99.90
18434;DHT22;9344;52.294;13.626;2022-11-15T11:06:05;12.10;99.90
18434;DHT22;9344;52.294;13.626;2022-11-15T11:08:32;12.10;99.90
18434;DHT22;9344;52.294;13.626;2022-11-15T11:11:00;12.20;99.90
18434;DHT22;9344;52.294;13.626;2022-11-15T11:13:29;12.30;99.90
18434;DHT22;9344;52.294;13.626;2022-11-15T11:16:15;12.40;99.90
18434;DHT22;9344;52.294;13.626;2022-11-15T11:18:51;12.40;99.90
18434;DHT22;9344;52.294;13.626;2022-11-15T11:21:25;12.50;99.90
18434;DHT22;9344;52.294;13.626;2022-11-15T11:23:57;12.60;99.90
18434;DHT22;9344;52.294;13.626;2022-11-15T11:26:35;12.60;99.90
18434;DHT22;9344;52.294;13.626;2022-11-15T11:29:17;12.70;99.90
18434;DHT22;9344;52.294;13.626;2022-11-15T11:31:53;12.80;99.90
18434;DHT22;9344;52.294;13.626;2022-11-15T11:34:34;12.80;99.90
18434;DHT22;9344;52.294;13.626;2022-11-15T11:37:10;13.70;99.90
18434;DHT22;9344;52.294;13.626;2022-11-15T11:39:48;13.00;99.90
18434;DHT22;9344;52.294;13.626;2022-11-15T11:42:29;13.10;99.90
18434;DHT22;9344;52.294;13.626;2022-11-15T11:45:03;13.10;99.90
18434;DHT22;9344;52.294;13.626;2022-11-15T11:47:34;13.20;99.90
18434;DHT22;9344;52.294;13.626;2022-11-15T11:50:11;13.20;99.90
18434;DHT22;9344;52.294;13.626;2022-11-15T11:52:43;13.30;99.90
18434;DHT22;9344;52.294;13.626;2022-11-15T11:55:14;13.30;99.90
18434;DHT22;9344;52.294;13.626;2022-11-15T11:57:45;13.40;99.90
18434;DHT22;9344;52.294;13.626;2022-11-15T12:00:18;13.40;99.90
18434;DHT22;9344;52.294;13.626;2022-11-15T12:02:48;13.50;99.90
18434;DHT22;9344;52.294;13.626;2022-11-15T12:05:21;13.60;99.90
18434;DHT22;9344;52.294;13.626;2022-11-15T12:07:50;13.60;99.90
18434;DHT22;9344;52.294;13.626;2022-11-15T12:10:23;13.70;99.90
18434;DHT22;9344;52.294;13.626;2022-11-15T12:12:56;13.80;99.90
18434;DHT22;9344;52.294;13.626;2022-11-15T12:15:28;13.80;99.90
18434;DHT22;9344;52.294;13.626;2022-11-15T12:17:57;13.80;99.90
18434;DHT22;9344;52.294;13.626;2022-11-15T12:20:29;13.80;99.90
18434;DHT22;9344;52.294;13.626;2022-11-15T12:22:59;13.90;99.90
18434;DHT22;9344;52.294;13.626;2022-11-15T12:25:29;13.90;99.90
18434;DHT22;9344;52.294;13.626;2022-11-15T12:28:00;13.90;99.90
18434;DHT22;9344;52.294;13.626;2022-11-15T12:30:40;14.00;99.90
18434;DHT22;9344;52.294;13.626;2022-11-15T12:33:32;14.00;99.90
18434;DHT22;9344;52.294;13.626;2022-11-15T12:36:03;14.10;99.90
18434;DHT22;9344;52.294;13.626;2022-11-15T12:38:50;14.10;99.90
18434;DHT22;9344;52.294;13.626;2022-11-15T12:41:19;14.20;99.90
18434;DHT22;9344;52.294;13.626;2022-11-15T12:43:47;14.20;99.90
18434;DHT22;9344;52.294;13.626;2022-11-15T12:46:21;14.30;99.90
18434;DHT22;9344;52.294;13.626;2022-11-15T12:48:51;14.30;99.90
18434;DHT22;9344;52.294;13.626;2022-11-15T12:51:22;14.30;99.90
18434;DHT22;9344;52.294;13.626;2022-11-15T12:57:29;14.50;99.90
18434;DHT22;9344;52.294;13.626;2022-11-15T12:59:57;14.50;99.90
18434;DHT22;9344;52.294;13.626;2022-11-15T13:02:29;14.50;99.90
18434;DHT22;9344;52.294;13.626;2022-11-15T13:08:03;14.60;99.90
18434;DHT22;9344;52.294;13.626;2022-11-15T13:10:31;14.60;99.90
18434;DHT22;9344;52.294;13.626;2022-11-15T13:12:59;14.60;99.90
18434;DHT22;9344;52.294;13.626;2022-11-15T13:15:45;14.70;99.90
18434;DHT22;9344;52.294;13.626;2022-11-15T13:18:36;14.70;99.90
18434;DHT22;9344;52.294;13.626;2022-11-15T13:21:05;14.70;99.90
18434;DHT22;9344;52.294;13.626;2022-11-15T13:23:58;14.70;99.90
18434;DHT22;9344;52.294;13.626;2022-11-15T13:26:25;14.80;99.90
18434;DHT22;9344;52.294;13.626;2022-11-15T13:28:52;14.80;99.90
18434;DHT22;9344;52.294;13.626;2022-11-15T13:31:34;14.80;99.90
18434;DHT22;9344;52.294;13.626;2022-11-15T13:34:13;14.80;99.90
18434;DHT22;9344;52.294;13.626;2022-11-15T13:36:41;14.80;99.90
18434;DHT22;9344;52.294;13.626;2022-11-15T13:39:25;14.90;99.90
18434;DHT22;9344;52.294;13.626;2022-11-15T13:41:53;14.90;99.90
18434;DHT22;9344;52.294;13.626;2022-11-15T13:44:21;14.90;99.90
18434;DHT22;9344;52.294;13.626;2022-11-15T13:46:47;15.00;99.90
18434;DHT22;9344;52.294;13.626;2022-11-15T13:49:14;15.10;99.90
18434;DHT22;9344;52.294;13.626;2022-11-15T13:51:44;15.20;99.90
18434;DHT22;9344;52.294;13.626;2022-11-15T13:54:19;15.20;99.90
18434;DHT22;9344;52.294;13.626;2022-11-15T13:56:53;15.40;99.90
18434;DHT22;9344;52.294;13.626;2022-11-15T13:59:25;15.40;99.90
18434;DHT22;9344;52.294;13.626;2022-11-15T14:01:53;15.50;99.90
18434;DHT22;9344;52.294;13.626;2022-11-15T14:04:22;15.50;99.90
18434;DHT22;9344;52.294;13.626;2022-11-15T14:06:53;15.60;99.90
18434;DHT22;9344;52.294;13.626;2022-11-15T14:09:32;15.60;99.90
18434;DHT22;9344;52.294;13.626;2022-11-15T14:12:00;15.60;99.90
18434;DHT22;9344;52.294;13.626;2022-11-15T14:14:29;15.60;99.90
18434;DHT22;9344;52.294;13.626;2022-11-15T14:16:57;15.70;99.90
18434;DHT22;9344;52.294;13.626;2022-11-15T14:19:37;15.70;99.90
18434;DHT22;9344;52.294;13.626;2022-11-15T14:22:12;15.70;99.90
18434;DHT22;9344;52.294;13.626;2022-11-15T14:24:42;15.60;99.90
18434;DHT22;9344;52.294;13.626;2022-11-15T14:27:20;15.60;99.90
18434;DHT22;9344;52.294;13.626;2022-11-15T14:29:47;15.50;99.90
18434;DHT22;9344;52.294;13.626;2022-11-15T14:32:16;15.50;99.90
18434;DHT22;9344;52.294;13.626;2022-11-15T14:34:43;15.50;99.90
18434;DHT22;9344;52.294;13.626;2022-11-15T14:37:21;15.40;99.90
18434;DHT22;9344;52.294;13.626;2022-11-15T14:39:50;15.50;99.90
18434;DHT22;9344;52.294;13.626;2022-11-15T14:42:17;15.40;99.90
18434;DHT22;9344;52.294;13.626;2022-11-15T14:44:44;15.40;99.90
18434;DHT22;9344;52.294;13.626;2022-11-15T14:47:11;15.30;99.90
18434;DHT22;9344;52.294;13.626;2022-11-15T14:49:37;15.20;99.90
18434;DHT22;9344;52.294;13.626;2022-11-15T14:52:15;15.10;99.90
18434;DHT22;9344;52.294;13.626;2022-11-15T14:54:43;15.00;99.90
18434;DHT22;9344;52.294;13.626;2022-11-15T14:57:11;14.90;99.90
18434;DHT22;9344;52.294;13.626;2022-11-15T14:59:37;14.80;99.90
18434;DHT22;9344;52.294;13.626;2022-11-15T15:02:10;14.70;99.90
18434;DHT22;9344;52.294;13.626;2022-11-15T15:04:41;14.60;99.90
18434;DHT22;9344;52.294;13.626;2022-11-15T15:07:08;14.50;99.90
18434;DHT22;9344;52.294;13.626;2022-11-15T15:09:34;14.40;99.90
18434;DHT22;9344;52.294;13.626;2022-11-15T15:12:01;14.30;99.90
18434;DHT22;9344;52.294;13.626;2022-11-15T15:14:29;14.20;99.90
18434;DHT22;9344;52.294;13.626;2022-11-15T15:16:55;14.10;99.90
18434;DHT22;9344;52.294;13.626;2022-11-15T15:19:22;14.00;99.90
18434;DHT22;9344;52.294;13.626;2022-11-15T15:21:48;13.90;99.90
18434;DHT22;9344;52.294;13.626;2022-11-15T15:24:15;13.90;99.90
18434;DHT22;9344;52.294;13.626;2022-11-15T15:26:41;13.80;99.90
18434;DHT22;9344;52.294;13.626;2022-11-15T15:29:08;13.70;99.90
18434;DHT22;9344;52.294;13.626;2022-11-15T15:31:36;13.60;99.90
18434;DHT22;9344;52.294;13.626;2022-11-15T15:34:04;13.60;99.90
18434;DHT22;9344;52.294;13.626;2022-11-15T15:36:30;13.50;99.90
18434;DHT22;9344;52.294;13.626;2022-11-15T15:38:57;13.50;99.90
18434;DHT22;9344;52.294;13.626;2022-11-15T15:41:24;13.40;99.90
18434;DHT22;9344;52.294;13.626;2022-11-15T15:43:50;13.30;99.90
18434;DHT22;9344;52.294;13.626;2022-11-15T15:46:18;13.30;99.90
18434;DHT22;9344;52.294;13.626;2022-11-15T15:48:46;13.20;99.90
18434;DHT22;9344;52.294;13.626;2022-11-15T15:51:13;13.10;99.90
18434;DHT22;9344;52.294;13.626;2022-11-15T15:53:40;13.10;99.90
18434;DHT22;9344;52.294;13.626;2022-11-15T15:56:06;12.90;99.90
18434;DHT22;9344;52.294;13.626;2022-11-15T15:58:33;12.90;99.90
18434;DHT22;9344;52.294;13.626;2022-11-15T16:01:00;12.80;99.90
18434;DHT22;9344;52.294;13.626;2022-11-15T16:03:26;12.70;99.90
18434;DHT22;9344;52.294;13.626;2022-11-15T16:05:54;12.60;99.90